Longview, WA

5:29 AM PST on December 28, 2014 (GMT -0800)
Chehalis-Centralia | Change Station
CLOSE
Current Station
Airport
Location: Chehalis,
Elevation: 177 ft
Nearby Weather Stations
Active Advisory: Special Statement

Elev 177 ft 46.68 °N, 122.98 °W | Updated 14 minutes ago

Rain
Rain
41 °F
Feels Like 38 °F
N
5
Wind Variable Wind from SW

Today
High -- | Low -- °F
--% Chance of Precip.
Yesterday
High -- | Low -- °F
Precip. -- in
7:54 AM 4:33 PM
Waxing Crescent, 48% visible
Pressure 30.17 in
Visibility 10.0 miles
Clouds Scattered Clouds 3400 ft
Mostly Cloudy 4100 ft
Mostly Cloudy 5000 ft
Windchill 38 °F
Dew Point 39 °F
Humidity 93%
Rainfall 0.00 in
Snow Depth Not available.
UV 0 out of 12
Pollen .20 out of 12
Air Quality Not available.
Flu Activity Not available.
METAR KCLS 281315Z AUTO 22004KT 10SM SCT034 BKN041 BKN050 05/04 A3017 RMK AO2

More Conditions Fewer Conditions

Pressure 30.17 in
Visibility 10.0 miles
Clouds Scattered Clouds 3400 ft
Mostly Cloudy 4100 ft
Mostly Cloudy 5000 ft
Windchill 38 °F
Dew Point 39 °F
Humidity 93%
Rainfall 0.00 in
Snow Depth Not available.
UV 0 out of 12
Pollen .20 out of 12
Air Quality Not available.
Flu Activity Not available.
METAR KCLS 281315Z AUTO 22004KT 10SM SCT034 BKN041 BKN050 05/04 A3017 RMK AO2

More Conditions Fewer Conditions

10-Day Weather Forecast

Almanac

Astronomy

Dec. 28, 2014 Rise Set
Actual Time
Civil Twilight
Nautical Twilight
Astronomical Twilight
Moon
Length of Visible Light
Length of Day
Tomorrow will be .
, % of the Moon is Illuminated

Today's Extremes

State Highs State Lows

Community

WunderPhotos

Upload Photos

1,781,258 photos uploaded!

WunderBlogs® & News

Nearby

Air Quality

  Air Quality AQ Index Pollutant
Not available.

Snow Depth

Station Depth Elevation

Earthquake Activity

City Distance Mag. Time & Date
Minimum magnitude displayed is 2.5.

Coastal Water Temperatures

Place Temperature

Nearby Weather Stations